Kezdőlap
METAR-TAF:

METAR-TAF

Repülőterek :

Peru, Indiana, Amerikai Egyesült Államok

földrajzi szélesség: 40-39N, földrajzi hosszúság: 086-09W, magasság: 247 m

Jelenlegi meteorológiai megfigyelések

A jelentés 30 perccel ezelõtt készült, 10:55 UTC
Északkeleti szél 4 kt
Hőmérséklet 17°C
Páratartalom 88%
Légköri nyomás 1019 hPa
Látótávolság: 16.1 km
Borult 20000 lábon

METAR: KGUS 211055Z AUTO 05004KT 10SM OVC200 17/15 A3009 RMK AO2 SLP188 T01680153 $

Idő: 07:25 (11:25 UTC)

Előrejelzés

A jelentés 14 órával és 25 perccel ezelõtt készült, 21:00 UTC
Az előrejelzés 20-én 21 óra UTC és 22-én 03 óra UTC között érvényes
Különbözõ irányokból fújó szél 6 kt
Látótávolság: 2113 m
Szórványos felhőzet 4000 lábon
Szórványos felhőzet 25000 lábon

TAF: KGUS 202100Z 2021/2203 VRB06KT 9999 SCT040 SCT250 QNH3007INS TX26/2021Z TN16/2110Z LAST NO AMDS AFT 2103 NEXT 2113

Meteorológiai megfigyelések és előrejelzések több, mint 4000 repülőtéren (METAR és TAF jelentéseket).

A térképen piros és sárga pontok jelzik az elérhető meteorológiai állomásokat.

Mozgassa az egeret a pont fölött, hogy megjelenjen az állomás neve.

Azután kattintson az időjárási megfigyelések és előrejelzések megtekintéséhez.

A térkép megváltoztatása: kattintson a fekete keresztel jelölt zöld gombra ráközelítéshez, a vonallal jelölt zöld gombra távolításhoz, vagy a zöld nyilakra a szomszédos térképek eléréséhez.


METAR-TAF: